createdAt,value
2023-06-17T00:00:39.843Z,10.35
2023-06-17T00:03:27.445Z,9.70
2023-06-17T00:05:58.372Z,10.40
2023-06-17T00:08:27.256Z,9.77
2023-06-17T00:10:54.931Z,10.05
2023-06-17T00:13:22.424Z,9.45
2023-06-17T00:15:54.744Z,9.90
2023-06-17T00:18:23.572Z,10.30
2023-06-17T00:20:54.983Z,9.30
2023-06-17T00:23:23.223Z,9.65
2023-06-17T00:25:52.918Z,9.68
2023-06-17T00:28:20.312Z,8.15
2023-06-17T00:30:48.657Z,9.25
2023-06-17T00:33:16.707Z,8.50
2023-06-17T00:35:45.404Z,9.05
2023-06-17T00:38:13.632Z,8.85
2023-06-17T00:40:41.505Z,8.43
2023-06-17T00:43:09.611Z,8.68
2023-06-17T00:45:40.594Z,8.52
2023-06-17T00:48:12.335Z,8.30
2023-06-17T00:50:41.232Z,7.95
2023-06-17T00:53:12.588Z,8.40
2023-06-17T00:55:40.842Z,8.30
2023-06-17T00:58:09.438Z,9.05
2023-06-17T01:00:37.948Z,8.52
2023-06-17T01:03:08.851Z,8.10
2023-06-17T01:05:38.979Z,7.70
2023-06-17T01:08:21.260Z,7.70
2023-06-17T01:11:09.686Z,6.68
2023-06-17T01:13:38.329Z,6.95
2023-06-17T01:16:06.431Z,7.55
2023-06-17T01:18:34.483Z,7.75
2023-06-17T01:21:04.758Z,7.25
2023-06-17T01:23:33.922Z,7.85
2023-06-17T01:26:03.673Z,8.77
2023-06-17T01:28:31.958Z,8.77
2023-06-17T01:30:59.909Z,8.52
2023-06-17T01:33:28.130Z,8.63
2023-06-17T01:36:05.094Z,8.68
2023-06-17T01:38:44.159Z,8.93
2023-06-17T01:41:19.658Z,7.70
2023-06-17T01:43:50.201Z,8.95
2023-06-17T01:46:18.338Z,8.07
2023-06-17T01:48:45.962Z,7.63
2023-06-17T01:51:14.025Z,8.32
2023-06-17T01:53:41.251Z,9.27
2023-06-17T01:56:08.911Z,8.23
2023-06-17T01:58:37.153Z,7.88
2023-06-17T02:01:04.741Z,8.23
2023-06-17T02:03:32.377Z,8.68
2023-06-17T02:06:00.009Z,7.82
2023-06-17T02:08:28.181Z,8.68
2023-06-17T02:10:56.336Z,7.78
2023-06-17T02:13:25.196Z,7.80
2023-06-17T02:15:52.831Z,8.05
2023-06-17T02:18:20.257Z,8.10
2023-06-17T02:20:47.833Z,8.13
2023-06-17T02:23:15.256Z,7.70
2023-06-17T02:25:42.888Z,8.23
2023-06-17T02:28:10.364Z,8.25
2023-06-17T02:30:38.112Z,8.50
2023-06-17T02:33:06.978Z,8.65
2023-06-17T02:35:34.964Z,8.80
2023-06-17T02:38:02.222Z,7.95
2023-06-17T02:40:30.510Z,8.38
2023-06-17T02:42:57.943Z,9.10
2023-06-17T02:45:25.509Z,8.80
2023-06-17T02:47:54.913Z,8.27
2023-06-17T02:50:24.618Z,9.25
2023-06-17T02:52:57.031Z,9.50
2023-06-17T02:57:56.296Z,8.80
2023-06-17T03:00:25.391Z,8.43
2023-06-17T03:02:53.221Z,8.82
2023-06-17T03:05:21.059Z,8.32
2023-06-17T03:07:49.197Z,9.02
2023-06-17T03:10:19.478Z,8.55
2023-06-17T03:12:53.750Z,9.10
2023-06-17T03:15:22.280Z,9.57
2023-06-17T03:17:49.829Z,9.85
2023-06-17T03:20:17.807Z,8.50
2023-06-17T03:22:45.448Z,9.75
2023-06-17T03:25:13.737Z,9.32
2023-06-17T03:27:41.035Z,9.63
2023-06-17T03:30:09.148Z,10.00
2023-06-17T03:32:37.143Z,9.63
2023-06-17T03:35:06.024Z,9.80
2023-06-17T03:37:33.347Z,10.30
2023-06-17T03:40:00.857Z,9.15
2023-06-17T03:42:34.036Z,9.88
2023-06-17T03:45:01.742Z,9.93
2023-06-17T03:47:29.718Z,9.57
2023-06-17T03:49:58.578Z,10.02
2023-06-17T03:52:26.540Z,10.27
2023-06-17T03:54:55.680Z,10.65
2023-06-17T03:57:24.422Z,10.43
2023-06-17T03:59:52.194Z,9.68
2023-06-17T04:02:19.645Z,10.90
2023-06-17T04:04:47.488Z,9.38
2023-06-17T04:07:14.747Z,9.23
2023-06-17T04:09:48.196Z,8.77
2023-06-17T04:12:29.406Z,8.45
2023-06-17T04:14:56.947Z,8.82
2023-06-17T04:17:24.241Z,8.73
2023-06-17T04:19:56.000Z,7.93
2023-06-17T04:22:23.334Z,9.43
2023-06-17T04:24:56.973Z,8.93
2023-06-17T04:27:25.022Z,8.27
2023-06-17T04:29:53.182Z,8.23
2023-06-17T04:32:20.439Z,8.35
2023-06-17T04:34:49.288Z,7.80
2023-06-17T04:37:17.910Z,8.30
2023-06-17T04:39:45.821Z,8.10
2023-06-17T04:42:17.472Z,8.20
2023-06-17T04:44:50.326Z,8.13
2023-06-17T04:47:18.080Z,8.10
2023-06-17T04:49:45.602Z,7.32
2023-06-17T04:52:12.797Z,7.63
2023-06-17T04:54:41.133Z,7.18
2023-06-17T04:57:11.466Z,6.82
2023-06-17T04:59:39.199Z,6.88
2023-06-17T05:02:07.798Z,7.00
2023-06-17T05:04:35.550Z,6.30
2023-06-17T05:07:03.249Z,6.53
2023-06-17T05:09:33.571Z,7.00
2023-06-17T05:12:00.935Z,6.97
2023-06-17T05:14:29.433Z,6.55
2023-06-17T05:16:56.727Z,6.72
2023-06-17T05:19:24.443Z,7.20
2023-06-17T05:21:52.093Z,6.35
2023-06-17T05:24:23.787Z,6.93
2023-06-17T05:26:51.378Z,6.20
2023-06-17T05:29:19.214Z,5.47
2023-06-17T05:31:46.733Z,5.53
2023-06-17T05:34:14.374Z,6.15
2023-06-17T05:36:41.632Z,6.25
2023-06-17T05:39:09.204Z,7.45
2023-06-17T05:41:36.540Z,6.30
2023-06-17T05:44:05.266Z,6.65
2023-06-17T05:46:32.915Z,7.07
2023-06-17T05:49:01.460Z,7.30
2023-06-17T05:51:29.413Z,6.82
2023-06-17T05:53:59.283Z,5.97
2023-06-17T05:56:27.350Z,6.50
2023-06-17T05:58:55.209Z,6.28
2023-06-17T06:01:49.740Z,7.03
2023-06-17T06:04:17.630Z,5.32
2023-06-17T06:06:45.566Z,6.10
2023-06-17T06:09:13.208Z,5.63
2023-06-17T06:11:41.101Z,6.00
2023-06-17T06:14:09.037Z,6.03
2023-06-17T06:16:37.061Z,5.22
2023-06-17T06:19:05.737Z,5.22
2023-06-17T06:21:33.041Z,5.70
2023-06-17T06:24:01.287Z,5.43
2023-06-17T06:26:34.465Z,5.03
2023-06-17T06:29:02.164Z,5.65
2023-06-17T06:31:30.070Z,5.03
2023-06-17T06:33:57.616Z,5.32
2023-06-17T06:36:25.667Z,5.30
2023-06-17T06:38:53.224Z,5.13
2023-06-17T06:41:21.237Z,4.57
2023-06-17T06:43:58.672Z,4.97
2023-06-17T06:46:27.246Z,4.50
2023-06-17T06:48:54.974Z,4.63
2023-06-17T06:51:22.198Z,4.40
2023-06-17T06:53:50.161Z,4.45
2023-06-17T06:56:17.634Z,4.68
2023-06-17T06:58:48.570Z,4.60
2023-06-17T07:01:16.699Z,4.70
2023-06-17T07:03:45.487Z,4.47
2023-06-17T07:06:12.752Z,5.45
2023-06-17T07:08:40.358Z,4.07
2023-06-17T07:11:07.678Z,4.40
2023-06-17T07:13:35.458Z,4.85
2023-06-17T07:16:02.982Z,3.70
2023-06-17T07:18:30.715Z,4.50
2023-06-17T07:20:58.352Z,4.65
2023-06-17T07:23:26.396Z,4.38
2023-06-17T07:25:56.182Z,4.38
2023-06-17T07:28:24.593Z,4.80
2023-06-17T07:30:52.095Z,4.65
2023-06-17T07:33:19.684Z,5.22
2023-06-17T07:35:47.030Z,5.20
2023-06-17T07:38:14.896Z,5.25
2023-06-17T07:40:42.419Z,6.05
2023-06-17T07:43:10.972Z,7.85
2023-06-17T07:45:38.152Z,7.40
2023-06-17T07:48:06.127Z,7.60
2023-06-17T07:50:33.480Z,6.75
2023-06-17T07:53:01.218Z,7.95
2023-06-17T07:55:30.395Z,8.10
2023-06-17T07:57:58.069Z,6.75
2023-06-17T08:00:25.717Z,7.50
2023-06-17T08:02:53.649Z,8.18
2023-06-17T08:05:21.058Z,7.32
2023-06-17T08:07:48.627Z,8.15
2023-06-17T08:10:15.990Z,7.82
2023-06-17T08:12:43.884Z,8.30
2023-06-17T08:15:11.325Z,9.02
2023-06-17T08:17:38.869Z,8.45
2023-06-17T08:20:11.514Z,10.00
2023-06-17T08:22:39.453Z,8.00
2023-06-17T08:25:07.263Z,6.80
2023-06-17T08:27:34.953Z,6.35
2023-06-17T08:30:02.361Z,6.40
2023-06-17T08:32:29.961Z,7.97
2023-06-17T08:34:57.360Z,6.50
2023-06-17T08:37:24.897Z,7.68
2023-06-17T08:39:52.154Z,7.20
2023-06-17T08:42:20.049Z,8.07
2023-06-17T08:44:49.918Z,7.07
2023-06-17T08:47:18.619Z,8.65
2023-06-17T08:49:47.144Z,7.82
2023-06-17T08:52:16.369Z,8.95
2023-06-17T08:54:44.357Z,9.35
2023-06-17T08:57:14.365Z,8.30
2023-06-17T08:59:42.345Z,8.10
2023-06-17T09:02:13.200Z,7.25
2023-06-17T09:04:41.295Z,18.63
2023-06-17T09:07:10.773Z,9.23
2023-06-17T09:09:38.724Z,8.52
2023-06-17T09:12:09.646Z,8.40
2023-06-17T09:14:37.597Z,7.72
2023-06-17T09:17:05.326Z,8.23
2023-06-17T09:19:33.397Z,9.80
2023-06-17T09:22:13.238Z,7.53
2023-06-17T09:24:44.274Z,8.02
2023-06-17T09:27:21.624Z,8.55
2023-06-17T09:29:49.628Z,9.43
2023-06-17T09:32:17.210Z,9.48
2023-06-17T09:34:50.359Z,8.93
2023-06-17T09:37:17.924Z,8.97
2023-06-17T09:39:47.030Z,8.75
2023-06-17T09:42:14.570Z,9.63
2023-06-17T09:44:47.973Z,9.48
2023-06-17T09:47:16.393Z,10.32
2023-06-17T09:49:45.072Z,8.95
2023-06-17T09:52:13.592Z,8.30
2023-06-17T09:54:42.667Z,9.20
2023-06-17T09:57:11.233Z,8.18
2023-06-17T09:59:39.170Z,8.65
2023-06-17T10:02:07.848Z,10.15
2023-06-17T10:04:38.952Z,11.27
2023-06-17T10:07:08.411Z,9.32
2023-06-17T10:09:36.444Z,10.32
2023-06-17T10:12:06.884Z,8.85
2023-06-17T10:14:35.274Z,9.80
2023-06-17T10:17:06.724Z,9.27
2023-06-17T10:19:38.000Z,10.70
2023-06-17T10:22:12.662Z,11.05
2023-06-17T10:24:40.352Z,11.82
2023-06-17T10:27:08.761Z,12.95
2023-06-17T10:29:36.868Z,12.05
2023-06-17T10:32:24.229Z,9.95
2023-06-17T10:35:06.854Z,9.07
2023-06-17T10:37:46.184Z,10.88
2023-06-17T10:40:27.881Z,11.38
2023-06-17T10:43:05.108Z,10.43
2023-06-17T10:45:48.116Z,9.65
2023-06-17T10:48:19.065Z,10.70
2023-06-17T10:50:52.735Z,9.85
2023-06-17T10:53:27.240Z,10.38
2023-06-17T10:55:55.003Z,11.20
2023-06-17T10:58:23.034Z,10.55
2023-06-17T11:01:01.994Z,10.93
2023-06-17T11:03:30.940Z,9.88
2023-06-17T11:06:07.191Z,9.02
2023-06-17T11:08:40.744Z,11.30
2023-06-17T11:11:18.900Z,10.10
2023-06-17T11:13:53.163Z,9.32
2023-06-17T11:16:51.991Z,9.20
2023-06-17T11:19:21.685Z,9.13
2023-06-17T11:22:05.340Z,10.07
2023-06-17T11:24:45.670Z,8.40
2023-06-17T11:27:22.007Z,8.18
2023-06-17T11:29:59.711Z,7.60
2023-06-17T11:32:31.869Z,8.35
2023-06-17T11:35:03.799Z,7.78
2023-06-17T11:37:32.567Z,7.97
2023-06-17T11:40:02.917Z,8.50
2023-06-17T11:42:32.423Z,9.25
2023-06-17T11:45:04.575Z,8.35
2023-06-17T11:47:56.197Z,8.00
2023-06-17T11:51:20.845Z,6.25
2023-06-17T11:54:28.250Z,9.23
2023-06-17T11:57:34.135Z,10.20
2023-06-17T12:00:12.181Z,9.30
2023-06-17T12:02:47.644Z,8.88
2023-06-17T12:05:15.392Z,9.80
2023-06-17T12:07:46.820Z,10.10
2023-06-17T12:10:19.201Z,9.02
2023-06-17T12:12:48.990Z,9.68
2023-06-17T12:15:17.724Z,9.55
2023-06-17T12:17:52.618Z,9.35
2023-06-17T12:22:50.829Z,9.77
2023-06-17T12:25:19.188Z,8.05
2023-06-17T12:27:47.343Z,8.93
2023-06-17T12:30:15.342Z,8.43
2023-06-17T12:32:44.746Z,9.10
2023-06-17T12:35:13.370Z,9.65
2023-06-17T12:37:42.730Z,9.10
2023-06-17T12:40:11.317Z,8.25
2023-06-17T12:42:40.029Z,9.73
2023-06-17T12:45:08.997Z,8.45
2023-06-17T12:47:38.118Z,8.63
2023-06-17T12:50:07.043Z,8.20
2023-06-17T12:52:38.862Z,8.00
2023-06-17T12:55:08.927Z,11.00
2023-06-17T12:57:36.655Z,9.23
2023-06-17T13:00:07.718Z,9.63
2023-06-17T13:02:38.341Z,10.27
2023-06-17T13:05:06.766Z,10.68
2023-06-17T13:07:34.704Z,10.65
2023-06-17T13:10:03.071Z,9.73
2023-06-17T13:12:30.887Z,8.43
2023-06-17T13:14:58.153Z,10.30
2023-06-17T13:17:25.926Z,8.80
2023-06-17T13:19:53.289Z,8.65
2023-06-17T13:22:21.048Z,8.98
2023-06-17T13:24:48.439Z,10.02
2023-06-17T13:27:19.772Z,9.23
2023-06-17T13:29:47.324Z,9.52
2023-06-17T13:32:16.473Z,8.88
2023-06-17T13:34:45.818Z,10.15
2023-06-17T13:37:13.708Z,9.30
2023-06-17T13:39:41.667Z,9.93
2023-06-17T13:42:09.539Z,9.60
2023-06-17T13:44:38.405Z,8.55
2023-06-17T13:47:07.047Z,10.60
2023-06-17T13:49:35.272Z,10.65
2023-06-17T13:52:04.405Z,11.13
2023-06-17T13:54:31.643Z,10.40
2023-06-17T13:57:00.370Z,9.60
2023-06-17T13:59:27.994Z,9.18
2023-06-17T14:01:55.942Z,11.88
2023-06-17T14:04:23.829Z,7.97
2023-06-17T14:06:51.787Z,8.10
2023-06-17T14:09:19.226Z,9.05
2023-06-17T14:11:47.530Z,9.48
2023-06-17T14:14:15.364Z,8.35
2023-06-17T14:16:43.196Z,9.68
2023-06-17T14:19:11.026Z,8.68
2023-06-17T14:21:54.611Z,8.80
2023-06-17T14:24:23.421Z,9.68
2023-06-17T14:26:55.285Z,9.70
2023-06-17T14:29:25.448Z,9.73
2023-06-17T14:31:54.011Z,8.48
2023-06-17T14:34:21.374Z,8.50
2023-06-17T14:36:49.393Z,8.65
2023-06-17T14:39:16.683Z,8.27
2023-06-17T14:41:44.682Z,7.72
2023-06-17T14:44:12.826Z,8.02
2023-06-17T14:46:42.204Z,7.80
2023-06-17T14:49:09.936Z,8.80
2023-06-17T14:51:37.812Z,10.05
2023-06-17T14:54:06.342Z,11.00
2023-06-17T14:56:35.901Z,8.68
2023-06-17T14:59:06.174Z,8.27
2023-06-17T15:01:35.933Z,7.57
2023-06-17T15:04:05.416Z,7.78
2023-06-17T15:06:33.194Z,7.95
2023-06-17T15:09:36.159Z,6.72
2023-06-17T15:12:12.805Z,6.53
2023-06-17T15:14:44.464Z,7.43
2023-06-17T15:17:12.743Z,6.85
2023-06-17T15:19:40.195Z,6.97
2023-06-17T15:22:07.797Z,7.13
2023-06-17T15:24:35.631Z,7.13
2023-06-17T15:27:03.404Z,6.47
2023-06-17T15:29:30.903Z,8.65
2023-06-17T15:31:58.743Z,9.07
2023-06-17T15:34:26.198Z,8.77
2023-06-17T15:36:53.787Z,7.50
2023-06-17T15:39:24.491Z,6.88
2023-06-17T15:41:54.200Z,6.28
2023-06-17T15:44:22.384Z,6.50
2023-06-17T15:46:51.231Z,7.80
2023-06-17T15:49:18.940Z,7.07
2023-06-17T15:51:46.522Z,7.45
2023-06-17T15:54:14.134Z,7.18
2023-06-17T15:56:47.481Z,7.38
2023-06-17T15:59:15.010Z,7.30
2023-06-17T16:01:42.810Z,6.90
2023-06-17T16:04:33.643Z,6.53
2023-06-17T16:07:02.911Z,6.38
2023-06-17T16:09:32.659Z,6.82
2023-06-17T16:12:01.215Z,6.45
2023-06-17T16:14:29.438Z,8.18
2023-06-17T16:17:02.279Z,8.95
2023-06-17T16:19:32.333Z,7.40
2023-06-17T16:22:02.501Z,8.18
2023-06-17T16:24:31.186Z,12.48
2023-06-17T16:27:00.131Z,9.23
2023-06-17T16:29:27.496Z,8.65
2023-06-17T16:31:56.000Z,9.00
2023-06-17T16:34:23.439Z,7.70
2023-06-17T16:36:51.218Z,8.75
2023-06-17T16:39:18.585Z,8.43
2023-06-17T16:41:46.407Z,8.98
2023-06-17T16:44:13.870Z,8.38
2023-06-17T16:46:41.518Z,8.93
2023-06-17T16:49:09.498Z,7.82
2023-06-17T16:51:37.307Z,8.15
2023-06-17T16:54:06.630Z,8.25
2023-06-17T16:56:35.338Z,7.88
2023-06-17T16:59:03.605Z,9.02
2023-06-17T17:01:31.875Z,9.20
2023-06-17T17:04:01.467Z,8.35
2023-06-17T17:06:29.118Z,10.10
2023-06-17T17:08:56.567Z,9.57
2023-06-17T17:11:24.242Z,10.90
2023-06-17T17:13:51.851Z,14.65
2023-06-17T17:16:19.612Z,10.50
2023-06-17T17:18:47.232Z,9.23
2023-06-17T17:21:15.277Z,10.30
2023-06-17T17:23:46.394Z,10.32
2023-06-17T17:26:14.156Z,12.15
2023-06-17T17:28:42.919Z,11.43
2023-06-17T17:31:10.568Z,10.52
2023-06-17T17:33:38.251Z,9.50
2023-06-17T17:36:06.255Z,9.80
2023-06-17T17:38:33.634Z,9.80
2023-06-17T17:41:02.359Z,12.00
2023-06-17T17:43:30.904Z,12.77
2023-06-17T17:45:59.065Z,12.68
2023-06-17T17:48:27.594Z,10.90
2023-06-17T17:50:55.222Z,11.20
2023-06-17T17:53:22.727Z,11.85
2023-06-17T17:55:50.570Z,11.27
2023-06-17T17:58:18.235Z,11.68
2023-06-17T18:01:07.997Z,12.40
2023-06-17T18:03:35.622Z,13.13
2023-06-17T18:06:03.252Z,11.48
2023-06-17T18:08:30.596Z,11.98
2023-06-17T18:10:58.333Z,11.10
2023-06-17T18:13:25.667Z,12.93
2023-06-17T18:15:53.426Z,11.43
2023-06-17T18:18:20.680Z,8.85
2023-06-17T18:20:48.374Z,9.05
2023-06-17T18:23:15.933Z,9.48
2023-06-17T18:25:43.564Z,8.82
2023-06-17T18:28:11.388Z,10.90
2023-06-17T18:30:39.041Z,10.02
2023-06-17T18:33:06.378Z,8.93
2023-06-17T18:35:34.404Z,11.05
2023-06-17T18:38:01.660Z,9.85
2023-06-17T18:40:29.500Z,10.27
2023-06-17T18:42:56.978Z,9.70
2023-06-17T18:45:24.516Z,9.50
2023-06-17T18:47:52.087Z,11.25
2023-06-17T18:50:19.959Z,9.00
2023-06-17T18:52:47.635Z,8.73
2023-06-17T18:55:15.311Z,8.55
2023-06-17T18:57:42.761Z,8.55
2023-06-17T19:00:11.472Z,8.75
2023-06-17T19:02:39.041Z,9.73
2023-06-17T19:05:07.304Z,10.05
2023-06-17T19:07:34.776Z,11.45
2023-06-17T19:10:02.362Z,10.65
2023-06-17T19:12:31.793Z,11.05
2023-06-17T19:14:59.927Z,10.95
2023-06-17T19:17:27.665Z,10.30
2023-06-17T19:19:55.361Z,9.13
2023-06-17T19:22:23.585Z,10.25
2023-06-17T19:24:52.401Z,9.40
2023-06-17T19:27:19.730Z,9.60
2023-06-17T19:29:47.314Z,10.18
2023-06-17T19:32:14.611Z,10.05
2023-06-17T19:34:43.058Z,12.43
2023-06-17T19:37:10.531Z,9.38
2023-06-17T19:39:38.146Z,9.73
2023-06-17T19:42:05.953Z,12.25
2023-06-17T19:44:36.222Z,9.40
2023-06-17T19:47:05.137Z,9.30
2023-06-17T19:49:33.209Z,10.52
2023-06-17T19:52:00.637Z,9.25
2023-06-17T19:54:28.689Z,11.43
2023-06-17T19:56:56.012Z,9.70
2023-06-17T19:59:23.677Z,9.57
2023-06-17T20:01:52.189Z,9.48
2023-06-17T20:04:20.104Z,7.85
2023-06-17T20:06:47.443Z,9.00
2023-06-17T20:09:15.045Z,8.13
2023-06-17T20:11:42.309Z,7.60
2023-06-17T20:14:09.924Z,8.45
2023-06-17T20:16:37.494Z,7.68
2023-06-17T20:19:05.041Z,10.57
2023-06-17T20:21:32.539Z,10.57
2023-06-17T20:24:18.940Z,11.18
2023-06-17T20:26:46.309Z,11.38
2023-06-17T20:29:14.125Z,10.43
2023-06-17T20:31:41.485Z,9.68
2023-06-17T20:34:09.063Z,10.52
2023-06-17T20:36:36.458Z,10.88
2023-06-17T20:39:05.748Z,10.00
2023-06-17T20:41:33.288Z,10.32
2023-06-17T20:44:01.114Z,11.27
2023-06-17T20:46:31.680Z,11.13
2023-06-17T20:48:59.354Z,9.68
2023-06-17T20:51:26.909Z,8.80
2023-06-17T20:53:54.525Z,9.70
2023-06-17T20:56:23.908Z,10.20
2023-06-17T20:58:52.942Z,9.65
2023-06-17T21:01:21.077Z,10.82
2023-06-17T21:03:48.976Z,9.73
2023-06-17T21:06:16.260Z,9.45
2023-06-17T21:08:43.879Z,9.68
2023-06-17T21:11:11.402Z,8.82
2023-06-17T21:13:38.999Z,7.85
2023-06-17T21:16:06.382Z,7.65
2023-06-17T21:18:34.320Z,7.78
2023-06-17T21:21:01.584Z,7.78
2023-06-17T21:23:29.335Z,13.30
2023-06-17T21:25:59.665Z,10.90
2023-06-17T21:28:28.238Z,12.30
2023-06-17T21:30:55.853Z,7.38
2023-06-17T21:33:23.491Z,9.57
2023-06-17T21:35:50.744Z,8.48
2023-06-17T21:38:18.286Z,7.70
2023-06-17T21:40:45.527Z,6.57
2023-06-17T21:43:14.113Z,6.75
2023-06-17T21:45:41.501Z,6.07
2023-06-17T21:48:09.108Z,6.20
2023-06-17T21:50:36.852Z,5.78
2023-06-17T21:53:04.482Z,5.50
2023-06-17T21:55:31.739Z,5.85
2023-06-17T21:57:59.283Z,8.05
2023-06-17T22:00:28.663Z,6.70
2023-06-17T22:02:56.828Z,6.60
2023-06-17T22:05:24.292Z,5.55
2023-06-17T22:07:53.128Z,4.38
2023-06-17T22:10:20.820Z,4.80
2023-06-17T22:12:48.909Z,4.95
2023-06-17T22:15:16.442Z,5.10
2023-06-17T22:17:44.026Z,5.00
2023-06-17T22:20:11.993Z,5.43
2023-06-17T22:22:39.870Z,5.07
2023-06-17T22:25:07.839Z,4.40
2023-06-17T22:27:35.751Z,4.75
2023-06-17T22:30:04.243Z,4.97
2023-06-17T22:32:31.899Z,5.60
2023-06-17T22:34:59.161Z,5.03
2023-06-17T22:37:26.715Z,4.93
2023-06-17T22:39:53.900Z,4.65
2023-06-17T22:42:21.749Z,4.45
2023-06-17T22:44:49.370Z,4.45
2023-06-17T22:47:17.378Z,6.95
2023-06-17T22:49:44.554Z,5.20
2023-06-17T22:52:12.414Z,5.55
2023-06-17T22:54:39.658Z,4.80
2023-06-17T22:57:07.812Z,4.50
2023-06-17T22:59:36.060Z,4.90
2023-06-17T23:02:04.275Z,4.75
2023-06-17T23:04:32.055Z,5.68
2023-06-17T23:07:00.247Z,5.20
2023-06-17T23:09:27.602Z,4.70
2023-06-17T23:11:55.155Z,7.00
2023-06-17T23:14:25.008Z,6.70
2023-06-17T23:16:52.672Z,5.10
2023-06-17T23:19:20.034Z,5.38
2023-06-17T23:21:47.600Z,6.63
2023-06-17T23:24:15.609Z,5.40
2023-06-17T23:26:43.277Z,8.40
2023-06-17T23:29:10.543Z,4.80
2023-06-17T23:31:38.945Z,5.65
2023-06-17T23:34:06.638Z,4.57
2023-06-17T23:36:34.331Z,5.13
2023-06-17T23:39:02.790Z,5.30
2023-06-17T23:41:30.425Z,4.82
2023-06-17T23:43:59.232Z,4.70
2023-06-17T23:46:45.355Z,4.60
2023-06-17T23:49:50.339Z,4.35
2023-06-17T23:52:55.149Z,5.03
2023-06-17T23:55:22.562Z,4.93
